Time;durP1;ratioP1;P1;durP2;ratioP2;P2;SDS_P1;SDS_P2;PMS_P1;PMS_P2;Temp;Humidity;BMP_temperature;BMP_pressure;BME280_temperature;BME280_humidity;BME280_pressure;Samples;Min_cycle;Max_cycle;Signal;HPM_P1;HPM_P2
2021/12/30 00:01:24;;;;;;;3.85;1.38;;;;;;;;;;5077421;27;87685;-68
2021/12/30 00:03:51;;;;;;;2.25;1.40;;;;;;;;;;5077038;27;88010;-68
2021/12/30 00:06:18;;;;;;;2.90;1.33;;;;;;;;;;5076281;27;89073;-68
2021/12/30 00:08:45;;;;;;;2.83;1.40;;;;;;;;;;5075347;27;88781;-68
2021/12/30 00:11:12;;;;;;;2.63;1.23;;;;;;;;;;5076614;27;88552;-68
2021/12/30 00:13:44;;;;;;;4.38;1.50;;;;;;;;;;5077205;27;89065;-68
2021/12/30 00:16:11;;;;;;;3.55;1.42;;;;;;;;;;5076454;27;88591;-68
2021/12/30 00:18:38;;;;;;;3.38;1.38;;;;;;;;;;5079784;27;87893;-68
2021/12/30 00:21:04;;;;;;;2.67;1.05;;;;;;;;;;5077162;27;88575;-68
2021/12/30 00:23:31;;;;;;;3.58;1.63;;;;;;;;;;5076482;27;88773;-68
2021/12/30 00:25:57;;;;;;;3.63;1.48;;;;;;;;;;5077073;27;88086;-68
2021/12/30 00:28:23;;;;;;;1.60;1.10;;;;;;;;;;5065438;27;87914;-68
2021/12/30 00:30:51;;;;;;;2.65;1.50;;;;;;;;;;5076328;27;88025;-68
2021/12/30 00:33:17;;;;;;;2.80;1.30;;;;;;;;;;5075974;27;89742;-68
2021/12/30 00:35:47;;;;;;;;;;;;;;;;;;5077120;27;88175;-68
2021/12/30 00:38:14;;;;;;;4.38;1.60;;;;;;;;;;5077238;27;118691;-68
2021/12/30 00:40:40;;;;;;;4.32;1.42;;;;;;;;;;5079433;27;88044;-68
2021/12/30 00:43:06;;;;;;;2.65;1.42;;;;;;;;;;5076352;27;88700;-68
2021/12/30 00:45:34;;;;;;;5.30;1.50;;;;;;;;;;5076316;27;88886;-68
2021/12/30 00:48:00;;;;;;;1.88;1.05;;;;;;;;;;5076219;27;88048;-68
2021/12/30 00:50:27;;;;;;;3.80;1.23;;;;;;;;;;5076232;27;87473;-68
2021/12/30 00:52:54;;;;;;;3.75;1.48;;;;;;;;;;5076292;27;87909;-68
2021/12/30 00:55:20;;;;;;;2.15;1.10;;;;;;;;;;5076137;27;87935;-68
2021/12/30 00:57:47;;;;;;;2.78;1.30;;;;;;;;;;5075715;27;89178;-69
2021/12/30 01:00:14;;;;;;;2.50;1.50;;;;;;;;;;5075767;27;88049;-68
2021/12/30 01:02:41;;;;;;;2.88;1.42;;;;;;;;;;5078246;27;88052;-68
2021/12/30 01:05:08;;;;;;;2.92;1.17;;;;;;;;;;5075823;27;88155;-68
2021/12/30 01:07:35;;;;;;;3.35;1.35;;;;;;;;;;5075524;27;88251;-68
2021/12/30 01:10:02;;;;;;;1.50;0.98;;;;;;;;;;5075981;27;89055;-68
2021/12/30 01:12:29;;;;;;;4.30;1.45;;;;;;;;;;5076144;27;89020;-68
2021/12/30 01:14:55;;;;;;;1.15;0.93;;;;;;;;;;5075720;27;87890;-68
2021/12/30 01:17:28;;;;;;;2.40;1.33;;;;;;;;;;5076064;27;89092;-68
2021/12/30 01:19:54;;;;;;;3.08;1.60;;;;;;;;;;5076238;27;89833;-68
2021/12/30 01:22:22;;;;;;;4.13;1.65;;;;;;;;;;5074499;27;89047;-68
2021/12/30 01:24:54;;;;;;;4.28;1.38;;;;;;;;;;5078449;27;89231;-68
2021/12/30 01:27:20;;;;;;;2.38;1.17;;;;;;;;;;5058413;27;88946;-68
2021/12/30 01:29:48;;;;;;;2.60;0.98;;;;;;;;;;5075855;27;89739;-68
2021/12/30 01:32:14;;;;;;;4.72;1.83;;;;;;;;;;5075239;27;89184;-68
2021/12/30 01:34:41;;;;;;;3.58;1.45;;;;;;;;;;5075730;27;88822;-68
2021/12/30 01:37:07;;;;;;;3.20;1.48;;;;;;;;;;5075236;27;89545;-68
2021/12/30 01:39:36;;;;;;;3.65;1.33;;;;;;;;;;5076120;27;88275;-68
2021/12/30 01:42:04;;;;;;;2.92;1.13;;;;;;;;;;5074788;27;87971;-68
2021/12/30 01:44:32;;;;;;;2.25;1.30;;;;;;;;;;5078335;27;88502;-68
2021/12/30 01:46:59;;;;;;;3.03;1.30;;;;;;;;;;5073419;27;88933;-68
2021/12/30 01:49:25;;;;;;;3.05;1.50;;;;;;;;;;5075270;27;89461;-68
2021/12/30 01:51:53;;;;;;;2.55;1.05;;;;;;;;;;5075571;27;89015;-68
2021/12/30 01:54:19;;;;;;;3.05;1.42;;;;;;;;;;5075103;27;87926;-68
2021/12/30 01:56:46;;;;;;;3.15;1.40;;;;;;;;;;5075863;27;89569;-68
2021/12/30 01:59:13;;;;;;;3.17;1.25;;;;;;;;;;5074883;27;89369;-68
2021/12/30 02:01:45;;;;;;;2.13;1.27;;;;;;;;;;5075752;27;88094;-68
2021/12/30 02:04:12;;;;;;;2.63;1.30;;;;;;;;;;5075092;27;88562;-68
2021/12/30 02:06:38;;;;;;;3.35;1.35;;;;;;;;;;5077024;27;88294;-68
2021/12/30 02:09:05;;;;;;;2.13;1.20;;;;;;;;;;5075080;27;88084;-68
2021/12/30 02:11:31;;;;;;;2.50;1.17;;;;;;;;;;5075426;27;90761;-68
2021/12/30 02:13:57;;;;;;;5.07;1.50;;;;;;;;;;5075327;27;88263;-68
2021/12/30 02:16:24;;;;;;;3.30;1.40;;;;;;;;;;5074795;27;88327;-68
2021/12/30 02:18:52;;;;;;;3.22;1.52;;;;;;;;;;5075572;27;89024;-68
2021/12/30 02:21:18;;;;;;;3.08;1.17;;;;;;;;;;5066371;27;88013;-68
2021/12/30 02:23:45;;;;;;;3.25;1.20;;;;;;;;;;5060469;27;88063;-68
2021/12/30 02:26:15;;;;;;;3.25;1.30;;;;;;;;;;5074284;27;87934;-68
2021/12/30 02:28:42;;;;;;;2.47;1.20;;;;;;;;;;5078873;27;87735;-68
2021/12/30 02:31:13;;;;;;;3.97;1.40;;;;;;;;;;5075018;27;87920;-68
2021/12/30 02:33:40;;;;;;;2.22;1.15;;;;;;;;;;5074994;27;88145;-68
2021/12/30 02:36:07;;;;;;;3.72;1.38;;;;;;;;;;5067276;27;88689;-68
2021/12/30 02:38:35;;;;;;;2.35;1.33;;;;;;;;;;5074621;27;89973;-68
2021/12/30 02:41:02;;;;;;;2.90;1.38;;;;;;;;;;5075053;27;88147;-68
2021/12/30 02:43:30;;;;;;;4.85;1.60;;;;;;;;;;5074261;27;88079;-68
2021/12/30 02:45:57;;;;;;;3.63;1.55;;;;;;;;;;5074720;27;88080;-68
2021/12/30 02:48:26;;;;;;;3.13;1.58;;;;;;;;;;5074642;27;88036;-68
2021/12/30 02:50:54;;;;;;;2.28;1.10;;;;;;;;;;5073687;27;89016;-68
2021/12/30 02:53:20;;;;;;;3.13;1.35;;;;;;;;;;5055801;27;88797;-68
2021/12/30 02:55:47;;;;;;;3.05;1.40;;;;;;;;;;5078800;27;88397;-68
2021/12/30 02:58:14;;;;;;;3.88;1.45;;;;;;;;;;5077323;27;88545;-68
2021/12/30 03:00:41;;;;;;;3.65;1.80;;;;;;;;;;5077231;27;89224;-68
2021/12/30 03:03:15;;;;;;;3.40;1.75;;;;;;;;;;5076805;27;89892;-68
2021/12/30 03:05:41;;;;;;;2.08;1.25;;;;;;;;;;5077851;27;87942;-68
2021/12/30 03:08:08;;;;;;;2.60;1.40;;;;;;;;;;5077520;27;88235;-68
2021/12/30 03:10:34;;;;;;;3.65;1.30;;;;;;;;;;5077764;27;88195;-68
2021/12/30 03:13:04;;;;;;;2.13;1.25;;;;;;;;;;5064890;27;88836;-68
2021/12/30 03:15:32;;;;;;;;;;;;;;;;;;5078020;27;88447;-68
2021/12/30 03:17:58;;;;;;;3.22;1.38;;;;;;;;;;5078891;27;119071;-68
2021/12/30 03:20:25;;;;;;;3.88;1.60;;;;;;;;;;5077525;27;87901;-68
2021/12/30 03:22:51;;;;;;;1.42;0.95;;;;;;;;;;5069185;27;88058;-68
2021/12/30 03:25:17;;;;;;;2.90;1.25;;;;;;;;;;5077112;27;88612;-68
2021/12/30 03:27:44;;;;;;;2.58;1.38;;;;;;;;;;5076710;27;88001;-68
2021/12/30 03:30:14;;;;;;;2.67;1.30;;;;;;;;;;5077954;27;89853;-68
2021/12/30 03:32:41;;;;;;;2.90;1.63;;;;;;;;;;5076789;27;88698;-68
2021/12/30 03:35:07;;;;;;;1.70;1.20;;;;;;;;;;5080499;27;88839;-68
2021/12/30 03:37:33;;;;;;;2.85;1.15;;;;;;;;;;5061089;27;89834;-68
2021/12/30 03:40:00;;;;;;;2.63;1.25;;;;;;;;;;5077877;27;88221;-68
2021/12/30 03:42:26;;;;;;;1.75;1.23;;;;;;;;;;5077368;27;87245;-68
2021/12/30 03:44:56;;;;;;;2.15;1.20;;;;;;;;;;5078187;27;90003;-68
2021/12/30 03:47:23;;;;;;;2.30;0.93;;;;;;;;;;5077587;27;88007;-68
2021/12/30 03:49:50;;;;;;;3.00;1.73;;;;;;;;;;5077652;27;89860;-68
2021/12/30 03:52:23;;;;;;;2.72;1.30;;;;;;;;;;5077536;27;87888;-69
2021/12/30 03:54:49;;;;;;;1.63;1.17;;;;;;;;;;5079869;27;87975;-68
2021/12/30 03:57:16;;;;;;;2.22;1.38;;;;;;;;;;5077368;27;88007;-68
2021/12/30 03:59:42;;;;;;;2.40;1.13;;;;;;;;;;5076983;27;88470;-68
2021/12/30 04:02:08;;;;;;;1.92;1.30;;;;;;;;;;5069623;27;87908;-68
2021/12/30 04:04:35;;;;;;;2.10;1.27;;;;;;;;;;5076436;27;87916;-68
2021/12/30 04:07:01;;;;;;;2.60;1.08;;;;;;;;;;5077714;27;87303;-68
2021/12/30 04:09:28;;;;;;;2.08;1.02;;;;;;;;;;5076601;27;88136;-68
2021/12/30 04:11:54;;;;;;;1.15;0.90;;;;;;;;;;5076713;27;88905;-68
2021/12/30 04:14:20;;;;;;;2.17;0.85;;;;;;;;;;5076475;27;88971;-68
2021/12/30 04:16:46;;;;;;;0.95;0.80;;;;;;;;;;5080154;27;89409;-68
2021/12/30 04:19:13;;;;;;;2.25;1.20;;;;;;;;;;5076258;27;88296;-68
2021/12/30 04:21:39;;;;;;;1.52;0.90;;;;;;;;;;5066540;27;87963;-68
2021/12/30 04:24:05;;;;;;;1.65;1.25;;;;;;;;;;5075489;27;88764;-68
2021/12/30 04:26:32;;;;;;;1.67;0.93;;;;;;;;;;5077099;27;88708;-68
2021/12/30 04:28:58;;;;;;;2.55;0.95;;;;;;;;;;5076504;27;87852;-68
2021/12/30 04:31:25;;;;;;;2.15;1.05;;;;;;;;;;5076935;27;87966;-68
2021/12/30 04:33:51;;;;;;;1.95;1.08;;;;;;;;;;5076881;27;88096;-68
2021/12/30 04:36:17;;;;;;;1.63;1.00;;;;;;;;;;5076788;27;87983;-68
2021/12/30 04:38:43;;;;;;;1.10;0.90;;;;;;;;;;5079266;27;90810;-68
2021/12/30 04:41:10;;;;;;;1.27;1.00;;;;;;;;;;5076314;27;90534;-68
2021/12/30 04:43:36;;;;;;;2.50;1.45;;;;;;;;;;5076532;27;87969;-68
2021/12/30 04:46:03;;;;;;;2.03;1.05;;;;;;;;;;5076211;27;88708;-68
2021/12/30 04:48:29;;;;;;;1.33;0.80;;;;;;;;;;5077062;27;88017;-68
2021/12/30 04:50:56;;;;;;;1.15;0.90;;;;;;;;;;5076361;27;88606;-68
2021/12/30 04:53:22;;;;;;;1.10;1.00;;;;;;;;;;5075454;27;88150;-68
2021/12/30 04:55:48;;;;;;;1.88;1.25;;;;;;;;;;5076424;27;87539;-68
2021/12/30 04:58:15;;;;;;;2.70;1.42;;;;;;;;;;5076793;27;88026;-68
2021/12/30 05:00:42;;;;;;;1.75;1.02;;;;;;;;;;5079173;27;88845;-68
2021/12/30 05:03:10;;;;;;;2.22;1.10;;;;;;;;;;5075182;27;89724;-68
2021/12/30 05:05:38;;;;;;;0.98;0.85;;;;;;;;;;5076039;27;88383;-68
2021/12/30 05:08:05;;;;;;;2.38;1.00;;;;;;;;;;5075622;27;88243;-68
2021/12/30 05:10:32;;;;;;;1.98;1.17;;;;;;;;;;5076212;27;89963;-68
2021/12/30 05:12:59;;;;;;;2.25;1.23;;;;;;;;;;5076692;27;87957;-68
2021/12/30 05:15:25;;;;;;;1.55;0.90;;;;;;;;;;5075525;27;89862;-68
2021/12/30 05:17:51;;;;;;;1.88;1.00;;;;;;;;;;5075937;27;88822;-68
2021/12/30 05:20:18;;;;;;;2.03;1.05;;;;;;;;;;5071911;27;87625;-68
2021/12/30 05:22:44;;;;;;;1.45;0.90;;;;;;;;;;5079126;27;88093;-68
2021/12/30 05:25:11;;;;;;;0.85;0.70;;;;;;;;;;5075402;27;87999;-68
2021/12/30 05:27:37;;;;;;;0.70;0.60;;;;;;;;;;5057887;27;88686;-68
2021/12/30 05:30:05;;;;;;;0.88;0.88;;;;;;;;;;5074945;27;89013;-68
2021/12/30 05:32:31;;;;;;;1.33;0.90;;;;;;;;;;5072270;27;87967;-68
2021/12/30 05:34:58;;;;;;;1.65;0.90;;;;;;;;;;5075142;27;87946;-68
2021/12/30 05:37:24;;;;;;;1.08;0.80;;;;;;;;;;5075643;27;88412;-68
2021/12/30 05:39:50;;;;;;;1.25;0.90;;;;;;;;;;5075549;27;88110;-68
2021/12/30 05:42:17;;;;;;;1.30;1.10;;;;;;;;;;5074962;27;87919;-68
2021/12/30 05:44:43;;;;;;;0.85;0.80;;;;;;;;;;5078768;27;87264;-68
2021/12/30 05:47:09;;;;;;;1.45;0.82;;;;;;;;;;5075375;27;87943;-68
2021/12/30 05:49:36;;;;;;;1.70;0.98;;;;;;;;;;5075312;27;88688;-68
2021/12/30 05:52:02;;;;;;;1.27;0.90;;;;;;;;;;5069956;27;88749;-68
2021/12/30 05:54:28;;;;;;;1.00;0.70;;;;;;;;;;5075364;27;89120;-68
2021/12/30 05:56:55;;;;;;;1.00;0.75;;;;;;;;;;5075502;27;89019;-68
2021/12/30 05:59:21;;;;;;;1.17;0.90;;;;;;;;;;5074603;27;87996;-68
2021/12/30 06:01:48;;;;;;;1.38;0.93;;;;;;;;;;5076435;27;89719;-68
2021/12/30 06:04:14;;;;;;;1.17;0.90;;;;;;;;;;5077072;27;88016;-68
2021/12/30 06:06:41;;;;;;;1.42;1.00;;;;;;;;;;5075352;27;88113;-68
2021/12/30 06:09:07;;;;;;;1.25;1.00;;;;;;;;;;5075942;27;88289;-68
2021/12/30 06:11:33;;;;;;;0.77;0.63;;;;;;;;;;5074678;27;88628;-68
2021/12/30 06:14:00;;;;;;;1.30;0.70;;;;;;;;;;5075272;27;87892;-68
2021/12/30 06:16:26;;;;;;;0.50;0.50;;;;;;;;;;5074351;27;89393;-68
2021/12/30 06:18:52;;;;;;;0.75;0.60;;;;;;;;;;5074971;27;89325;-68
2021/12/30 06:21:18;;;;;;;1.33;0.93;;;;;;;;;;5066598;27;88529;-68
2021/12/30 06:23:45;;;;;;;0.88;0.75;;;;;;;;;;5059204;27;88649;-68
2021/12/30 06:26:11;;;;;;;1.27;0.75;;;;;;;;;;5077537;27;88012;-68
2021/12/30 06:28:37;;;;;;;0.80;0.60;;;;;;;;;;5077161;27;88800;-68
2021/12/30 06:31:03;;;;;;;0.70;0.70;;;;;;;;;;5078489;27;88022;-68
2021/12/30 06:33:30;;;;;;;1.23;0.80;;;;;;;;;;5078713;27;87853;-68
2021/12/30 06:35:56;;;;;;;1.38;0.93;;;;;;;;;;5078472;27;88992;-68
2021/12/30 06:38:22;;;;;;;0.70;0.60;;;;;;;;;;5079007;27;87967;-68
2021/12/30 06:40:49;;;;;;;0.65;0.60;;;;;;;;;;5077934;27;89052;-68
2021/12/30 06:43:15;;;;;;;0.70;0.70;;;;;;;;;;5078937;27;88686;-68
2021/12/30 06:45:44;;;;;;;1.05;0.60;;;;;;;;;;5077616;27;88030;-68
2021/12/30 06:48:14;;;;;;;0.75;0.70;;;;;;;;;;5081605;27;88650;-68
2021/12/30 06:50:41;;;;;;;0.60;0.57;;;;;;;;;;5077775;27;88023;-68
2021/12/30 06:53:07;;;;;;;0.90;0.60;;;;;;;;;;5078560;27;87934;-68
2021/12/30 06:55:33;;;;;;;0.70;0.70;;;;;;;;;;5074295;27;92429;-68
2021/12/30 06:58:00;;;;;;;1.30;0.70;;;;;;;;;;5076079;27;91661;-68
2021/12/30 07:00:26;;;;;;;0.57;0.57;;;;;;;;;;5074155;27;92615;-68
2021/12/30 07:02:53;;;;;;;0.68;0.57;;;;;;;;;;5075553;27;92343;-68
2021/12/30 07:05:19;;;;;;;1.50;0.80;;;;;;;;;;5073255;27;94865;-68
2021/12/30 07:07:45;;;;;;;1.45;0.70;;;;;;;;;;5074680;27;95537;-68
2021/12/30 07:10:12;;;;;;;0.95;0.70;;;;;;;;;;5077523;27;92887;-68
2021/12/30 07:12:38;;;;;;;0.80;0.80;;;;;;;;;;5075573;27;93282;-68
2021/12/30 07:15:05;;;;;;;1.02;0.50;;;;;;;;;;5073799;27;92305;-68
2021/12/30 07:17:32;;;;;;;1.38;0.63;;;;;;;;;;5075476;27;92335;-68
2021/12/30 07:19:59;;;;;;;0.60;0.60;;;;;;;;;;5074181;27;92300;-68
2021/12/30 07:22:25;;;;;;;0.50;0.50;;;;;;;;;;5075564;27;92648;-68
2021/12/30 07:25:08;;;;;;;0.57;0.57;;;;;;;;;;5073992;27;92644;-68
2021/12/30 07:27:35;;;;;;;0.45;0.45;;;;;;;;;;5074065;27;92515;-68
2021/12/30 07:30:02;;;;;;;0.68;0.63;;;;;;;;;;5072668;27;96869;-68
2021/12/30 07:32:28;;;;;;;0.57;0.50;;;;;;;;;;5077403;27;92913;-68
2021/12/30 07:34:54;;;;;;;0.50;0.50;;;;;;;;;;5074793;27;94548;-68
2021/12/30 07:37:20;;;;;;;0.70;0.70;;;;;;;;;;5074956;27;92514;-68
2021/12/30 07:39:47;;;;;;;1.00;0.50;;;;;;;;;;5073591;27;92359;-68
2021/12/30 07:42:14;;;;;;;0.40;0.40;;;;;;;;;;5074451;27;92566;-68
2021/12/30 07:44:40;;;;;;;0.47;0.40;;;;;;;;;;5074207;27;92459;-68
2021/12/30 07:47:15;;;;;;;0.63;0.50;;;;;;;;;;5073631;27;93286;-68
2021/12/30 07:49:42;;;;;;;0.50;0.50;;;;;;;;;;5074004;27;93849;-68
2021/12/30 07:52:08;;;;;;;0.57;0.57;;;;;;;;;;5072893;27;92421;-68
2021/12/30 07:54:34;;;;;;;0.60;0.50;;;;;;;;;;5076018;27;94725;-68
2021/12/30 07:57:00;;;;;;;0.65;0.50;;;;;;;;;;5074555;27;92344;-68
2021/12/30 07:59:27;;;;;;;0.70;0.70;;;;;;;;;;5075127;27;93099;-68
2021/12/30 08:01:53;;;;;;;0.60;0.47;;;;;;;;;;5074255;27;93968;-68
2021/12/30 08:04:22;;;;;;;0.95;0.70;;;;;;;;;;5074793;27;93126;-68
2021/12/30 08:06:48;;;;;;;0.55;0.50;;;;;;;;;;5074434;27;92380;-68
2021/12/30 08:09:14;;;;;;;0.30;0.30;;;;;;;;;;5073205;27;92482;-68
2021/12/30 08:11:41;;;;;;;0.65;0.60;;;;;;;;;;5074852;27;91733;-68
2021/12/30 08:14:07;;;;;;;0.52;0.52;;;;;;;;;;5077256;27;92653;-68
2021/12/30 08:16:33;;;;;;;0.55;0.55;;;;;;;;;;5073906;27;92487;-68
2021/12/30 08:19:00;;;;;;;0.90;0.60;;;;;;;;;;5062638;27;94805;-68
2021/12/30 08:21:26;;;;;;;0.65;0.55;;;;;;;;;;5073609;27;93230;-68
2021/12/30 08:23:53;;;;;;;0.40;0.40;;;;;;;;;;5074631;27;92925;-68
2021/12/30 08:26:19;;;;;;;0.57;0.50;;;;;;;;;;5061980;27;92970;-68
2021/12/30 08:28:46;;;;;;;0.40;0.40;;;;;;;;;;5055701;27;92685;-68
2021/12/30 08:31:13;;;;;;;0.65;0.60;;;;;;;;;;5074112;27;92721;-68
2021/12/30 08:33:39;;;;;;;0.50;0.50;;;;;;;;;;5073642;27;93278;-68
2021/12/30 08:36:05;;;;;;;0.80;0.50;;;;;;;;;;5076512;27;93551;-68
2021/12/30 08:38:32;;;;;;;0.50;0.43;;;;;;;;;;5072341;27;92418;-68
2021/12/30 08:40:58;;;;;;;0.40;0.40;;;;;;;;;;5072379;27;93524;-68
2021/12/30 08:43:25;;;;;;;0.60;0.47;;;;;;;;;;5071577;27;95059;-68
2021/12/30 08:45:51;;;;;;;0.40;0.40;;;;;;;;;;5073937;27;95311;-68
2021/12/30 08:48:19;;;;;;;1.50;0.55;;;;;;;;;;5072700;27;93365;-68
2021/12/30 08:50:46;;;;;;;0.68;0.50;;;;;;;;;;5073482;27;92467;-68
2021/12/30 08:53:13;;;;;;;0.70;0.50;;;;;;;;;;5072243;27;92811;-68
2021/12/30 08:55:39;;;;;;;0.43;0.40;;;;;;;;;;5073913;27;93353;-68
2021/12/30 08:58:06;;;;;;;0.38;0.32;;;;;;;;;;5076867;27;92695;-68
2021/12/30 09:00:33;;;;;;;0.50;0.50;;;;;;;;;;5074165;27;92392;-68
2021/12/30 09:03:04;;;;;;;1.15;0.50;;;;;;;;;;5055012;27;93051;-68
2021/12/30 09:05:31;;;;;;;0.40;0.40;;;;;;;;;;5072870;27;92436;-68
2021/12/30 09:07:58;;;;;;;1.10;0.50;;;;;;;;;;5058040;27;95726;-68
2021/12/30 09:10:27;;;;;;;1.08;0.68;;;;;;;;;;5074096;27;93282;-68
2021/12/30 09:12:54;;;;;;;2.30;0.60;;;;;;;;;;5073786;27;92509;-68
2021/12/30 09:15:22;;;;;;;2.45;0.50;;;;;;;;;;5073360;27;92378;-68
2021/12/30 09:17:49;;;;;;;1.38;0.75;;;;;;;;;;5073315;27;92390;-68
2021/12/30 09:20:15;;;;;;;0.40;0.40;;;;;;;;;;5075620;27;92940;-68
2021/12/30 09:22:42;;;;;;;1.15;0.57;;;;;;;;;;5072934;27;92689;-68
2021/12/30 09:25:09;;;;;;;0.60;0.60;;;;;;;;;;5073733;27;93151;-68
2021/12/30 09:27:36;;;;;;;2.03;0.90;;;;;;;;;;5073111;27;92441;-68
2021/12/30 09:30:07;;;;;;;1.35;0.60;;;;;;;;;;5072713;27;92618;-68
2021/12/30 09:32:37;;;;;;;2.25;0.60;;;;;;;;;;5071703;27;95295;-68
2021/12/30 09:35:04;;;;;;;2.42;0.80;;;;;;;;;;5072566;27;93086;-68
2021/12/30 09:37:30;;;;;;;1.33;0.80;;;;;;;;;;5073001;27;92351;-68
2021/12/30 09:39:59;;;;;;;1.40;0.65;;;;;;;;;;5073166;27;93144;-68
2021/12/30 09:42:25;;;;;;;0.52;0.40;;;;;;;;;;5075706;27;92437;-68
2021/12/30 09:44:53;;;;;;;1.67;0.85;;;;;;;;;;5072164;27;93291;-68
2021/12/30 09:47:19;;;;;;;1.42;0.70;;;;;;;;;;5072912;27;94897;-68
2021/12/30 09:49:47;;;;;;;1.23;0.60;;;;;;;;;;5073245;27;92098;-68
2021/12/30 09:52:13;;;;;;;0.85;0.65;;;;;;;;;;5072746;27;92382;-68
2021/12/30 09:54:40;;;;;;;1.10;0.73;;;;;;;;;;5071984;27;93360;-68
2021/12/30 09:57:06;;;;;;;3.88;1.15;;;;;;;;;;5071219;27;94723;-68
2021/12/30 09:59:34;;;;;;;1.40;0.73;;;;;;;;;;5071148;27;95567;-68
2021/12/30 10:02:00;;;;;;;0.93;0.70;;;;;;;;;;5071734;27;93540;-68
2021/12/30 10:04:30;;;;;;;0.75;0.60;;;;;;;;;;5074861;27;92372;-68
2021/12/30 10:06:58;;;;;;;0.90;0.60;;;;;;;;;;5072168;27;93327;-68
2021/12/30 10:09:38;;;;;;;1.33;0.90;;;;;;;;;;5072325;27;92499;-68
2021/12/30 10:12:05;;;;;;;3.83;1.00;;;;;;;;;;5071522;27;92708;-68
2021/12/30 10:14:33;;;;;;;0.70;0.70;;;;;;;;;;5073031;27;92606;-68
2021/12/30 10:17:18;;;;;;;1.20;0.70;;;;;;;;;;5072578;27;92585;-68
2021/12/30 10:19:45;;;;;;;1.80;0.70;;;;;;;;;;5071508;27;94218;-68
2021/12/30 10:22:13;;;;;;;2.35;0.80;;;;;;;;;;5068367;27;95993;-68
2021/12/30 10:24:39;;;;;;;2.17;0.77;;;;;;;;;;5075735;27;92505;-68
2021/12/30 10:27:06;;;;;;;1.95;1.00;;;;;;;;;;5072315;27;94513;-68
2021/12/30 10:29:39;;;;;;;1.80;0.98;;;;;;;;;;5072824;27;92546;-68
2021/12/30 10:32:12;;;;;;;2.20;0.90;;;;;;;;;;5072218;27;92384;-68
2021/12/30 10:34:58;;;;;;;2.17;1.20;;;;;;;;;;5063347;27;93219;-68
2021/12/30 10:37:25;;;;;;;2.45;1.02;;;;;;;;;;5072228;27;92464;-68
2021/12/30 10:39:51;;;;;;;2.30;0.88;;;;;;;;;;5073013;27;92719;-68
2021/12/30 10:42:21;;;;;;;0.80;0.75;;;;;;;;;;5071671;27;93495;-68
2021/12/30 10:44:55;;;;;;;2.83;0.82;;;;;;;;;;5072500;27;92404;-68
2021/12/30 10:47:23;;;;;;;1.65;1.02;;;;;;;;;;5073901;27;95054;-68
2021/12/30 10:49:57;;;;;;;1.05;0.80;;;;;;;;;;5072043;27;92379;-68
2021/12/30 10:52:23;;;;;;;1.95;1.00;;;;;;;;;;5055921;27;92374;-68
2021/12/30 10:54:50;;;;;;;1.13;0.60;;;;;;;;;;5071935;27;93645;-68
2021/12/30 10:57:16;;;;;;;1.35;0.88;;;;;;;;;;5072074;27;92355;-68
2021/12/30 10:59:43;;;;;;;1.23;0.82;;;;;;;;;;5071680;27;93865;-68
2021/12/30 11:02:12;;;;;;;0.90;0.70;;;;;;;;;;5071365;27;93224;-68
2021/12/30 11:04:41;;;;;;;1.85;0.75;;;;;;;;;;5072742;27;92094;-68
2021/12/30 11:07:08;;;;;;;2.63;0.93;;;;;;;;;;5071536;27;92584;-68
2021/12/30 11:09:35;;;;;;;1.85;0.93;;;;;;;;;;5073450;27;92771;-68
2021/12/30 11:12:04;;;;;;;1.40;0.80;;;;;;;;;;5070242;27;94998;-68
2021/12/30 11:14:36;;;;;;;0.77;0.77;;;;;;;;;;5071424;27;92585;-67
2021/12/30 11:17:06;;;;;;;3.65;1.20;;;;;;;;;;5074798;27;92690;-67
2021/12/30 11:19:37;;;;;;;2.93;1.10;;;;;;;;;;5074861;27;92886;-67
2021/12/30 11:22:05;;;;;;;2.83;1.10;;;;;;;;;;5074844;27;92468;-67
2021/12/30 11:24:31;;;;;;;2.00;1.00;;;;;;;;;;5075019;27;92864;-67
2021/12/30 11:26:58;;;;;;;1.25;0.70;;;;;;;;;;5074972;27;93501;-67
2021/12/30 11:29:24;;;;;;;3.05;1.38;;;;;;;;;;5075472;27;91688;-67
2021/12/30 11:31:52;;;;;;;4.53;1.17;;;;;;;;;;5078352;27;92370;-67
2021/12/30 11:34:21;;;;;;;2.55;0.93;;;;;;;;;;5074548;27;93218;-67
2021/12/30 11:36:47;;;;;;;4.35;1.13;;;;;;;;;;5074063;27;94735;-67
2021/12/30 11:39:16;;;;;;;1.75;0.90;;;;;;;;;;5074830;27;94000;-67
2021/12/30 11:41:43;;;;;;;2.67;1.10;;;;;;;;;;5074437;27;93327;-67
2021/12/30 11:44:29;;;;;;;4.43;1.08;;;;;;;;;;5074401;27;92362;-67
2021/12/30 11:46:55;;;;;;;1.88;1.23;;;;;;;;;;5074426;27;92521;-67
2021/12/30 11:49:22;;;;;;;1.42;1.10;;;;;;;;;;5074273;27;92650;-67
2021/12/30 11:51:50;;;;;;;1.90;0.85;;;;;;;;;;5073487;27;92342;-67
2021/12/30 11:54:33;;;;;;;3.33;1.20;;;;;;;;;;5077464;27;92962;-67
2021/12/30 11:57:18;;;;;;;1.45;0.88;;;;;;;;;;5074792;27;92358;-67
2021/12/30 11:59:44;;;;;;;3.78;1.40;;;;;;;;;;5056892;27;93184;-67
2021/12/30 12:02:29;;;;;;;2.42;1.10;;;;;;;;;;5073371;27;96876;-67
2021/12/30 12:04:56;;;;;;;1.40;0.90;;;;;;;;;;5074437;27;92375;-67
2021/12/30 12:07:25;;;;;;;2.03;1.08;;;;;;;;;;5074888;27;93281;-67
2021/12/30 12:09:52;;;;;;;2.58;0.85;;;;;;;;;;5074850;27;93180;-67
2021/12/30 12:12:38;;;;;;;2.22;0.90;;;;;;;;;;5054378;27;92329;-67
2021/12/30 12:15:05;;;;;;;1.27;0.90;;;;;;;;;;5069803;27;92409;-67
2021/12/30 12:17:35;;;;;;;3.30;1.25;;;;;;;;;;5074565;27;92389;-67
2021/12/30 12:20:17;;;;;;;1.55;0.88;;;;;;;;;;5075085;27;94472;-67
2021/12/30 12:22:44;;;;;;;1.67;0.80;;;;;;;;;;5074187;27;92941;-67
2021/12/30 12:25:22;;;;;;;2.28;1.15;;;;;;;;;;5073487;27;92887;-67
2021/12/30 12:27:50;;;;;;;2.22;0.98;;;;;;;;;;5073049;27;94760;-67
2021/12/30 12:30:21;;;;;;;1.88;0.90;;;;;;;;;;5072499;27;93410;-67
2021/12/30 12:32:47;;;;;;;1.65;1.17;;;;;;;;;;5074362;27;92373;-67
2021/12/30 12:35:13;;;;;;;1.45;0.90;;;;;;;;;;5073540;27;93263;-67
2021/12/30 12:37:40;;;;;;;1.23;0.80;;;;;;;;;;5076766;27;92522;-67
2021/12/30 12:40:21;;;;;;;1.80;0.82;;;;;;;;;;5073238;27;92357;-66
2021/12/30 12:42:53;;;;;;;3.88;0.90;;;;;;;;;;5074313;27;94607;-67
2021/12/30 12:45:19;;;;;;;2.00;0.90;;;;;;;;;;5073885;27;92190;-67
2021/12/30 12:47:47;;;;;;;2.30;0.80;;;;;;;;;;5073488;27;92409;-67
2021/12/30 12:50:13;;;;;;;4.65;1.00;;;;;;;;;;5072049;27;93374;-67
2021/12/30 12:52:44;;;;;;;2.42;1.10;;;;;;;;;;5072317;27;95060;-67
2021/12/30 12:55:10;;;;;;;;;;;;;;;;;;5073663;27;94336;-67
2021/12/30 12:57:36;;;;;;;2.33;1.00;;;;;;;;;;5073595;27;123389;-67
2021/12/30 13:00:03;;;;;;;1.42;0.98;;;;;;;;;;5076940;27;92471;-67
2021/12/30 13:02:29;;;;;;;2.80;1.08;;;;;;;;;;5074092;27;92643;-67
2021/12/30 13:05:12;;;;;;;1.77;0.80;;;;;;;;;;5073007;27;92429;-67
2021/12/30 13:07:39;;;;;;;2.67;0.88;;;;;;;;;;5072904;27;92539;-67
2021/12/30 13:10:06;;;;;;;3.08;1.00;;;;;;;;;;5073465;27;93442;-67
2021/12/30 13:12:37;;;;;;;2.88;1.00;;;;;;;;;;5073029;27;92397;-67
2021/12/30 13:15:13;;;;;;;3.33;1.25;;;;;;;;;;5073032;27;92456;-67
2021/12/30 13:17:43;;;;;;;1.33;0.88;;;;;;;;;;5071628;27;94934;-67
2021/12/30 13:20:10;;;;;;;3.35;1.00;;;;;;;;;;5072868;27;92501;-67
2021/12/30 13:22:36;;;;;;;2.67;0.88;;;;;;;;;;5075949;27;92973;-67
2021/12/30 13:25:03;;;;;;;2.10;0.93;;;;;;;;;;5073350;27;92360;-67
2021/12/30 13:27:32;;;;;;;2.42;1.15;;;;;;;;;;5073277;27;92900;-67
2021/12/30 13:30:19;;;;;;;1.73;0.88;;;;;;;;;;5053319;27;93641;-67
2021/12/30 13:32:50;;;;;;;1.40;1.00;;;;;;;;;;5071831;27;92459;-68
2021/12/30 13:35:17;;;;;;;2.03;1.20;;;;;;;;;;5073197;27;91890;-66
2021/12/30 13:37:51;;;;;;;1.98;1.10;;;;;;;;;;5072418;27;93628;-67
2021/12/30 13:40:19;;;;;;;1.20;0.90;;;;;;;;;;5072706;27;92407;-67
2021/12/30 13:42:50;;;;;;;1.70;0.80;;;;;;;;;;5070648;27;94677;-67
2021/12/30 13:45:17;;;;;;;1.05;0.80;;;;;;;;;;5071441;27;93663;-67
2021/12/30 13:47:43;;;;;;;2.13;0.90;;;;;;;;;;5072423;27;93111;-67
2021/12/30 13:50:12;;;;;;;1.50;1.10;;;;;;;;;;5071919;27;93743;-67
2021/12/30 13:52:42;;;;;;;5.75;1.15;;;;;;;;;;5072421;27;92375;-67
2021/12/30 13:55:08;;;;;;;3.57;1.50;;;;;;;;;;5070768;27;93503;-67
2021/12/30 13:57:36;;;;;;;3.47;1.20;;;;;;;;;;5071992;27;93072;-67
2021/12/30 14:00:04;;;;;;;2.15;1.30;;;;;;;;;;5073471;27;91653;-67
2021/12/30 14:02:31;;;;;;;2.38;1.25;;;;;;;;;;5071431;27;92530;-67
2021/12/30 14:05:09;;;;;;;1.73;1.10;;;;;;;;;;5070541;27;92476;-67
2021/12/30 14:07:43;;;;;;;1.27;0.80;;;;;;;;;;5072226;27;94873;-67
2021/12/30 14:10:16;;;;;;;4.25;1.10;;;;;;;;;;5069835;27;92496;-67
2021/12/30 14:12:55;;;;;;;1.38;0.90;;;;;;;;;;5072254;27;92286;-67
2021/12/30 14:15:22;;;;;;;2.80;1.42;;;;;;;;;;5072412;27;92435;-67
2021/12/30 14:17:56;;;;;;;2.30;1.10;;;;;;;;;;5072357;27;92356;-67
2021/12/30 14:20:22;;;;;;;1.33;0.90;;;;;;;;;;5067115;27;92780;-67
2021/12/30 14:22:49;;;;;;;1.23;0.85;;;;;;;;;;5072628;27;92348;-67
2021/12/30 14:25:25;;;;;;;3.75;1.23;;;;;;;;;;5071291;27;93601;-67
2021/12/30 14:27:51;;;;;;;2.15;1.02;;;;;;;;;;5057587;27;92452;-67
2021/12/30 14:30:17;;;;;;;7.28;1.20;;;;;;;;;;5071480;27;93187;-65
2021/12/30 14:32:43;;;;;;;7.35;1.27;;;;;;;;;;5070296;27;94993;-66
2021/12/30 14:35:10;;;;;;;5.03;1.10;;;;;;;;;;5072310;27;93894;-66
2021/12/30 14:37:39;;;;;;;7.05;1.40;;;;;;;;;;5071738;27;92800;-66
2021/12/30 14:40:06;;;;;;;4.63;1.20;;;;;;;;;;5072213;27;92420;-66
2021/12/30 14:42:37;;;;;;;2.63;1.15;;;;;;;;;;5071910;27;92904;-66
2021/12/30 14:45:07;;;;;;;2.70;1.23;;;;;;;;;;5071579;27;92435;-65
2021/12/30 14:47:35;;;;;;;3.47;1.27;;;;;;;;;;5055048;27;92588;-66